Ana Sayfa
METAR-TAF:

METAR-TAF

Havaalanları :

Larnaka Uluslararası Havalimanı

Larnaka, Kıbrıs

Enlem: 34-53N, Boylam: 033-38E, yükseklik: 2 m

Güncel hava durumu gözlemi

Rapor saat 04:00 UTC de 31 dakika önce yapıldı.
Rüzgar kuzey/kuzeybatıdan 6 kt
Sıcaklık 6°C
Nem 75%
Basınç 1022 hPa
Görüş mesafesi 10 km veya daha fazla
2500 ft yükseklikte az bulutlu

METAR: LCLK 220400Z 33006KT 9999 FEW025 06/02 Q1022 NOSIG

Saat: 06:31 (04:31 UTC)

Tahmin

Rapor saat 23:30 UTC de 5 saat ve 1 dakika önce yapıldı.
Ayın 22'si saat 00 UTC'den ayın 22'si saat 24 UTC'ye kadar geçerli Tahmin
Rüzgar kuzeybatıdan 9 kt
Görüş mesafesi 10 km veya daha fazla
1500 m altında bulut yok ve kümülonimbus yok
Dönüşüyor
ayın 22'si saat 06 UTC'den ayın 22'si saat 10 UTC'ye kadar
Rüzgar kuzey/kuzeydoğudan 12 kt
Dönüşüyor
ayın 22'si saat 14 UTC'den ayın 22'si saat 16 UTC'ye kadar
Rüzgar kuzeybatıdan 8 kt

TAF: LCLK 212330Z 2200/2224 32009KT CAVOK BECMG 2206/2210 02012KT BECMG 2214/2216 32008KT

4.000'den fazla havaalanı için hava durumu gözlemleri ve tahminleri (METAR ve TAF raporları).

Kullanılabilir istasyonlar harita üzerinde sarı ve kırmızı noktalarla gösterilir.

İstasyonun adını görmek için fareyi noktanın üzerinde gezdirin.

Sonrasında hava gözlem ve tahminlerini görmek için tıklayın.

Haritayı değiştirmek için: yaklaştırmak için siyah artı işaretli yeşil düğmeye ve uzaklaştırmak için de eksi işaretli düğmeye hızla tıklayın; bitişik haritalar için yeşil okları kullanın.


METAR-TAF: